Time;durP1;ratioP1;P1;durP2;ratioP2;P2;SDS_P1;SDS_P2;PMS_P1;PMS_P2;Temp;Humidity;BMP_temperature;BMP_pressure;BME280_temperature;BME280_humidity;BME280_pressure;Samples;Min_cycle;Max_cycle;Signal;HPM_P1;HPM_P2
2023/09/30 00:02:14;;;;;;;11.93;6.07;;;12.30;99.90;;;;;;4960800;28;20188;-61
2023/09/30 00:04:40;;;;;;;16.83;7.68;;;12.30;99.90;;;;;;4960777;28;20180;-61
2023/09/30 00:07:06;;;;;;;16.30;7.65;;;12.20;99.90;;;;;;4978118;28;20186;-61
2023/09/30 00:09:32;;;;;;;17.95;7.07;;;12.20;99.90;;;;;;4978283;28;20227;-61
2023/09/30 00:11:58;;;;;;;18.63;8.05;;;12.40;99.90;;;;;;4977938;28;20177;-61
2023/09/30 00:14:23;;;;;;;15.30;7.35;;;12.40;99.90;;;;;;4977942;28;20184;-61
2023/09/30 00:16:50;;;;;;;17.08;7.55;;;12.30;99.90;;;;;;4976315;28;20565;-62
2023/09/30 00:19:16;;;;;;;15.68;8.40;;;12.40;99.90;;;;;;4978043;28;20720;-62
2023/09/30 00:21:42;;;;;;;19.25;7.93;;;12.30;99.90;;;;;;4977722;28;20190;-61
2023/09/30 00:24:09;;;;;;;13.38;7.25;;;12.30;99.90;;;;;;4978025;28;20169;-62
2023/09/30 00:26:35;;;;;;;22.25;9.30;;;12.30;99.90;;;;;;4977563;28;20192;-62
2023/09/30 00:29:04;;;;;;;22.33;8.30;;;12.20;99.90;;;;;;4977706;28;20175;-62
2023/09/30 00:31:30;;;;;;;21.77;8.82;;;12.20;99.90;;;;;;4977657;28;20650;-61
2023/09/30 00:33:56;;;;;;;14.35;8.65;;;12.20;99.90;;;;;;4975005;28;20196;-61
2023/09/30 00:36:22;;;;;;;19.52;7.80;;;12.20;99.90;;;;;;4977395;28;20231;-61
2023/09/30 00:38:48;;;;;;;14.27;7.35;;;12.30;99.90;;;;;;4977474;28;20185;-61
2023/09/30 00:41:13;;;;;;;13.35;8.00;;;12.30;99.90;;;;;;4977390;28;20613;-61
2023/09/30 00:43:40;;;;;;;20.10;8.07;;;12.30;99.90;;;;;;4977398;28;20201;-61
2023/09/30 00:46:31;;;;;;;18.13;7.90;;;12.30;99.90;;;;;;4977148;28;20177;-63
2023/09/30 00:48:59;;;;;;;13.38;7.05;;;12.20;99.90;;;;;;4977496;28;20204;-61
2023/09/30 00:51:29;;;;;;;14.10;7.10;;;12.20;99.90;;;;;;4973755;28;20585;-62
2023/09/30 00:53:58;;;;;;;12.43;6.30;;;12.10;99.90;;;;;;4977124;28;20212;-62
2023/09/30 00:56:27;;;;;;;11.05;5.22;;;12.00;99.90;;;;;;4977610;28;20201;-61
2023/09/30 00:58:54;;;;;;;10.00;5.45;;;12.00;99.90;;;;;;4976592;28;20165;-62
2023/09/30 01:01:20;;;;;;;7.80;5.20;;;12.00;99.90;;;;;;4977026;28;20168;-61
2023/09/30 01:03:47;;;;;;;13.30;5.30;;;12.00;99.90;;;;;;4977116;28;20177;-61
2023/09/30 01:06:13;;;;;;;10.57;5.32;;;11.90;99.90;;;;;;4976932;28;20668;-61
2023/09/30 01:08:39;;;;;;;7.45;5.20;;;11.90;99.90;;;;;;4975878;28;20196;-61
2023/09/30 01:11:06;;;;;;;7.95;5.03;;;11.90;99.90;;;;;;4977194;28;20193;-61
2023/09/30 01:13:34;;;;;;;8.57;5.57;;;11.90;99.90;;;;;;4959474;28;20674;-61
2023/09/30 01:16:09;;;;;;;12.82;5.10;;;11.90;99.90;;;;;;4976855;28;20248;-62
2023/09/30 01:18:35;;;;;;;8.57;4.68;;;11.90;99.90;;;;;;4957417;29;20249;-61
2023/09/30 01:21:05;;;;;;;7.22;5.03;;;11.90;99.90;;;;;;4957359;28;20277;-61
2023/09/30 01:23:35;;;;;;;8.30;5.30;;;12.00;99.90;;;;;;4957895;29;20654;-63
2023/09/30 01:26:06;;;;;;;11.82;5.97;;;12.10;99.90;;;;;;4960625;28;20197;-63
2023/09/30 01:28:32;;;;;;;8.73;6.43;;;12.10;99.90;;;;;;4976635;28;20167;-63
2023/09/30 01:30:58;;;;;;;13.13;6.60;;;12.10;99.90;;;;;;4976107;28;20196;-63
2023/09/30 01:33:24;;;;;;;13.88;6.70;;;12.00;99.90;;;;;;4976530;28;20187;-63
2023/09/30 01:35:50;;;;;;;12.60;6.47;;;12.00;99.90;;;;;;4976704;28;20180;-63
2023/09/30 01:38:16;;;;;;;11.45;5.43;;;11.90;99.90;;;;;;4976776;28;20653;-63
2023/09/30 01:40:42;;;;;;;9.90;5.55;;;11.90;99.90;;;;;;4958919;28;20256;-63
2023/09/30 01:43:08;;;;;;;8.90;5.72;;;11.90;99.90;;;;;;4975238;28;20646;-63
2023/09/30 01:45:35;;;;;;;11.68;5.60;;;11.90;99.90;;;;;;4958688;28;20205;-63
2023/09/30 01:48:02;;;;;;;8.82;5.90;;;11.80;99.90;;;;;;4976146;28;20188;-63
2023/09/30 01:50:28;;;;;;;10.50;5.63;;;11.70;99.90;;;;;;4976170;28;20543;-63
2023/09/30 01:52:53;;;;;;;9.82;5.28;;;11.70;99.90;;;;;;4974853;28;20188;-63
2023/09/30 01:55:19;;;;;;;8.10;5.03;;;11.70;99.90;;;;;;4976064;28;20181;-63
2023/09/30 01:57:45;;;;;;;6.68;5.20;;;11.60;99.90;;;;;;4976432;28;20201;-63
2023/09/30 02:00:12;;;;;;;7.70;5.20;;;11.70;99.90;;;;;;4974863;28;20559;-63
2023/09/30 02:02:38;;;;;;;6.68;4.45;;;11.70;99.90;;;;;;4976542;28;20158;-63
2023/09/30 02:05:04;;;;;;;9.77;5.25;;;11.80;99.90;;;;;;4975902;28;20184;-63
2023/09/30 02:07:30;;;;;;;11.98;6.22;;;11.80;99.90;;;;;;4975821;28;20236;-63
2023/09/30 02:09:57;;;;;;;10.95;5.93;;;11.80;99.90;;;;;;4975581;28;20673;-63
2023/09/30 02:12:22;;;;;;;13.93;6.85;;;11.80;99.90;;;;;;4975617;28;20215;-63
2023/09/30 02:14:48;;;;;;;13.25;6.95;;;11.80;99.90;;;;;;4976288;28;20201;-61
2023/09/30 02:17:14;;;;;;;13.75;6.13;;;11.90;99.90;;;;;;4972867;28;20222;-61
2023/09/30 02:19:40;;;;;;;21.80;6.97;;;11.90;99.90;;;;;;4976165;28;20224;-61
2023/09/30 02:22:09;;;;;;;11.20;6.63;;;11.70;99.90;;;;;;4975598;28;20701;-61
2023/09/30 02:24:34;;;;;;;8.77;6.00;;;11.80;99.90;;;;;;4957984;28;20185;-61
2023/09/30 02:27:00;;;;;;;12.48;6.35;;;11.80;99.90;;;;;;4975565;28;20169;-61
2023/09/30 02:29:26;;;;;;;10.90;6.13;;;11.70;99.90;;;;;;4975425;28;20247;-61
2023/09/30 02:31:54;;;;;;;10.75;6.20;;;11.60;99.90;;;;;;4953192;28;20204;-61
2023/09/30 02:34:20;;;;;;;12.15;5.53;;;11.60;99.90;;;;;;4975977;28;20569;-61
2023/09/30 02:36:46;;;;;;;12.80;6.47;;;11.70;99.90;;;;;;4975605;28;20204;-61
2023/09/30 02:39:11;;;;;;;11.75;6.57;;;11.60;99.90;;;;;;4975710;28;20184;-62
2023/09/30 02:41:37;;;;;;;9.45;6.40;;;11.60;99.90;;;;;;4975454;28;20216;-61
2023/09/30 02:44:04;;;;;;;15.50;7.72;;;11.60;99.90;;;;;;4975228;28;20176;-62
2023/09/30 02:46:29;;;;;;;14.98;6.10;;;11.50;99.90;;;;;;4974956;28;20267;-61
2023/09/30 02:48:55;;;;;;;17.75;6.65;;;11.60;99.90;;;;;;4973857;28;20587;-62
2023/09/30 02:51:21;;;;;;;10.45;7.07;;;11.60;99.90;;;;;;4957761;28;20181;-61
2023/09/30 02:53:48;;;;;;;14.90;7.13;;;11.60;99.90;;;;;;4975050;28;20174;-61
2023/09/30 02:56:14;;;;;;;18.75;7.40;;;11.60;99.90;;;;;;4973701;28;20209;-61
2023/09/30 02:58:42;;;;;;;12.05;6.53;;;11.70;99.90;;;;;;4974978;28;20185;-61
2023/09/30 03:01:09;;;;;;;14.25;6.65;;;11.60;99.90;;;;;;4957235;28;20204;-61
2023/09/30 03:03:35;;;;;;;10.27;6.07;;;11.60;99.90;;;;;;4973921;28;20181;-62
2023/09/30 03:06:01;;;;;;;8.25;5.85;;;11.50;99.90;;;;;;4975158;28;20181;-62
2023/09/30 03:08:27;;;;;;;12.60;6.28;;;11.50;99.90;;;;;;4974927;28;20177;-61
2023/09/30 03:10:52;;;;;;;13.32;5.88;;;11.40;99.90;;;;;;4975248;28;20244;-61
2023/09/30 03:13:21;;;;;;;15.10;6.07;;;11.40;99.90;;;;;;4974803;28;20188;-61
2023/09/30 03:15:49;;;;;;;10.50;5.13;;;11.40;99.90;;;;;;4974488;28;20184;-61
2023/09/30 03:18:17;;;;;;;9.18;5.65;;;11.40;99.90;;;;;;4974670;28;20201;-61
2023/09/30 03:20:43;;;;;;;11.70;5.68;;;11.40;99.90;;;;;;4973299;28;20193;-62
2023/09/30 03:23:10;;;;;;;9.38;5.40;;;11.30;99.90;;;;;;4973597;28;20273;-61
2023/09/30 03:25:36;;;;;;;7.22;5.50;;;11.20;99.90;;;;;;4957143;28;20192;-62
2023/09/30 03:28:02;;;;;;;8.48;5.07;;;11.30;99.90;;;;;;4955907;28;20574;-61
2023/09/30 03:30:29;;;;;;;8.40;5.10;;;11.30;99.90;;;;;;4974494;28;20197;-61
2023/09/30 03:32:55;;;;;;;7.30;5.70;;;11.20;99.90;;;;;;4975131;28;20177;-61
2023/09/30 03:35:21;;;;;;;13.10;5.95;;;11.20;99.90;;;;;;4974586;28;20556;-62
2023/09/30 03:37:47;;;;;;;10.60;6.15;;;11.20;99.90;;;;;;4973128;28;20211;-61
2023/09/30 03:40:18;;;;;;;12.38;6.15;;;11.20;99.90;;;;;;4974255;28;20657;-61
2023/09/30 03:42:44;;;;;;;8.23;5.55;;;11.20;99.90;;;;;;4975053;28;20160;-61
2023/09/30 03:45:11;;;;;;;11.60;5.72;;;11.20;99.90;;;;;;4973318;28;20186;-61
2023/09/30 03:47:38;;;;;;;10.65;6.43;;;11.20;99.90;;;;;;4974209;28;20227;-61
2023/09/30 03:50:05;;;;;;;11.65;5.38;;;11.10;99.90;;;;;;4974526;28;20201;-61
2023/09/30 03:52:33;;;;;;;10.45;5.13;;;11.20;99.90;;;;;;4974348;28;20260;-61
2023/09/30 03:55:03;;;;;;;12.95;5.85;;;11.20;99.90;;;;;;4974476;28;20173;-61
2023/09/30 03:57:29;;;;;;;11.57;5.75;;;11.20;99.90;;;;;;4956896;28;20208;-61
2023/09/30 03:59:54;;;;;;;9.57;5.75;;;11.10;99.90;;;;;;4974564;28;20215;-61
2023/09/30 04:02:21;;;;;;;9.20;5.20;;;11.00;99.90;;;;;;4955099;28;20181;-61
2023/09/30 04:04:46;;;;;;;9.65;5.45;;;11.00;99.90;;;;;;4974887;28;20634;-61
2023/09/30 04:07:13;;;;;;;15.93;6.05;;;10.90;99.90;;;;;;4974264;28;20192;-61
2023/09/30 04:09:39;;;;;;;12.55;6.03;;;10.90;99.90;;;;;;4974264;28;20248;-62
2023/09/30 04:12:05;;;;;;;9.27;5.78;;;10.90;99.90;;;;;;4974280;28;20220;-61
2023/09/30 04:14:31;;;;;;;9.85;6.22;;;11.00;99.90;;;;;;4974251;28;20267;-61
2023/09/30 04:16:58;;;;;;;12.80;6.13;;;10.90;99.90;;;;;;4953938;28;20212;-62
2023/09/30 04:19:23;;;;;;;11.23;5.68;;;10.90;99.90;;;;;;4974387;28;20197;-61
2023/09/30 04:21:49;;;;;;;12.73;6.20;;;10.80;99.90;;;;;;4956960;28;20208;-61
2023/09/30 04:24:15;;;;;;;9.00;5.88;;;10.90;99.90;;;;;;4974268;28;20177;-61
2023/09/30 04:26:40;;;;;;;10.95;5.65;;;10.80;99.90;;;;;;4974506;28;20614;-61
2023/09/30 04:29:08;;;;;;;15.60;6.72;;;10.80;99.90;;;;;;4974336;28;20193;-61
2023/09/30 04:31:33;;;;;;;14.00;7.45;;;10.80;99.90;;;;;;4956728;28;20192;-63
2023/09/30 04:33:59;;;;;;;12.73;6.90;;;10.80;99.90;;;;;;4975562;28;20181;-63
2023/09/30 04:36:25;;;;;;;16.02;6.82;;;10.70;99.90;;;;;;4977233;28;20709;-63
2023/09/30 04:38:51;;;;;;;13.93;7.00;;;10.70;99.90;;;;;;4957827;28;20179;-62
2023/09/30 04:41:16;;;;;;;14.80;7.20;;;10.70;99.90;;;;;;4975506;28;20197;-63
2023/09/30 04:43:43;;;;;;;18.75;7.57;;;10.70;99.90;;;;;;4977356;28;20621;-63
2023/09/30 04:46:12;;;;;;;15.38;7.13;;;10.70;99.90;;;;;;4977100;28;20201;-63
2023/09/30 04:48:38;;;;;;;14.02;7.03;;;10.80;99.90;;;;;;4977575;28;20179;-63
2023/09/30 04:51:07;;;;;;;14.68;7.72;;;10.80;99.90;;;;;;4977303;28;20197;-63
2023/09/30 04:53:33;;;;;;;16.23;7.75;;;10.80;99.90;;;;;;4977218;28;20181;-63
2023/09/30 04:55:59;;;;;;;14.45;7.70;;;10.80;99.90;;;;;;4977399;28;20634;-63
2023/09/30 04:58:25;;;;;;;18.15;7.32;;;10.70;99.90;;;;;;4969247;28;20197;-63
2023/09/30 05:00:51;;;;;;;13.60;7.10;;;10.70;99.90;;;;;;4976825;28;20198;-63
2023/09/30 05:03:16;;;;;;;12.50;6.82;;;10.70;99.90;;;;;;4976932;28;20174;-63
2023/09/30 05:05:42;;;;;;;14.35;7.20;;;10.70;99.90;;;;;;4977082;28;20174;-63
2023/09/30 05:08:10;;;;;;;13.52;6.72;;;10.60;99.90;;;;;;4977092;28;20271;-64
2023/09/30 05:10:36;;;;;;;15.75;6.50;;;10.60;99.90;;;;;;4976879;28;20654;-63
2023/09/30 05:13:02;;;;;;;12.75;6.85;;;10.50;99.90;;;;;;4977033;28;20192;-63
2023/09/30 05:15:31;;;;;;;14.60;7.70;;;10.50;99.90;;;;;;4959482;28;20182;-64
2023/09/30 05:17:57;;;;;;;10.57;7.03;;;10.50;99.90;;;;;;4976479;28;20252;-63
2023/09/30 05:20:24;;;;;;;10.02;7.13;;;10.50;99.90;;;;;;4976649;28;20604;-63
2023/09/30 05:22:50;;;;;;;13.25;6.70;;;10.50;99.90;;;;;;4976662;28;20543;-63
2023/09/30 05:25:17;;;;;;;11.57;6.18;;;10.40;99.90;;;;;;4976525;28;20185;-63
2023/09/30 05:27:43;;;;;;;13.88;6.50;;;10.30;99.90;;;;;;4976958;28;20192;-63
2023/09/30 05:30:10;;;;;;;10.40;6.45;;;10.30;99.90;;;;;;4959132;28;20228;-63
2023/09/30 05:32:38;;;;;;;11.18;5.97;;;10.20;99.90;;;;;;4976312;28;20174;-63
2023/09/30 05:35:05;;;;;;;8.82;6.07;;;10.10;99.90;;;;;;4976540;28;20212;-63
2023/09/30 05:37:31;;;;;;;9.70;6.80;;;10.00;99.90;;;;;;4976849;28;20240;-63
2023/09/30 05:39:57;;;;;;;14.33;6.73;;;10.00;99.90;;;;;;4975111;28;20220;-63
2023/09/30 05:42:23;;;;;;;16.63;7.85;;;10.10;99.90;;;;;;4976433;28;20177;-63
2023/09/30 05:44:49;;;;;;;10.10;6.38;;;10.10;99.90;;;;;;4974029;28;20178;-63
2023/09/30 05:47:15;;;;;;;12.18;6.32;;;10.10;99.90;;;;;;4958298;28;20189;-63
2023/09/30 05:49:41;;;;;;;12.67;6.97;;;10.20;99.90;;;;;;4958817;28;20208;-63
2023/09/30 05:52:07;;;;;;;13.88;6.82;;;10.20;99.90;;;;;;4976143;28;20170;-63
2023/09/30 05:54:33;;;;;;;10.13;7.13;;;10.30;99.90;;;;;;4976192;28;20252;-63
2023/09/30 05:57:00;;;;;;;11.25;6.38;;;10.20;99.90;;;;;;4975951;28;20235;-63
2023/09/30 05:59:28;;;;;;;9.20;6.57;;;10.30;99.90;;;;;;4976028;28;20239;-63
2023/09/30 06:01:53;;;;;;;14.73;6.93;;;10.30;99.90;;;;;;4975942;28;20204;-60
2023/09/30 06:04:20;;;;;;;10.73;5.90;;;10.20;99.90;;;;;;4976058;28;20540;-60
2023/09/30 06:06:46;;;;;;;8.95;5.78;;;10.20;99.90;;;;;;4975852;28;20200;-60
2023/09/30 06:09:12;;;;;;;9.82;5.68;;;10.30;99.90;;;;;;4958398;28;20654;-61
2023/09/30 06:11:41;;;;;;;9.70;6.28;;;10.30;99.90;;;;;;4976097;28;20599;-61
2023/09/30 06:14:07;;;;;;;8.60;5.68;;;10.30;99.90;;;;;;4974421;28;20189;-61
2023/09/30 06:16:34;;;;;;;13.52;6.25;;;10.30;99.90;;;;;;4975284;28;20196;-60
2023/09/30 06:19:00;;;;;;;7.57;5.07;;;10.40;99.90;;;;;;4958548;28;20645;-60
2023/09/30 06:21:29;;;;;;;8.63;5.60;;;10.30;99.90;;;;;;4975494;28;20177;-60
2023/09/30 06:23:55;;;;;;;6.57;4.93;;;10.30;99.90;;;;;;4975969;28;20237;-60
2023/09/30 06:26:21;;;;;;;9.27;5.55;;;10.40;99.90;;;;;;4975435;28;20193;-60
2023/09/30 06:28:47;;;;;;;8.85;5.80;;;10.50;99.90;;;;;;4975456;28;20189;-60
2023/09/30 06:31:15;;;;;;;10.13;5.50;;;10.50;99.90;;;;;;4973833;28;20197;-60
2023/09/30 06:33:41;;;;;;;7.63;5.65;;;10.50;99.90;;;;;;4975366;28;20169;-60
2023/09/30 06:36:13;;;;;;;12.88;6.35;;;10.50;99.90;;;;;;4975320;28;20169;-60
2023/09/30 06:38:39;;;;;;;16.17;7.22;;;10.50;99.90;;;;;;4975451;28;20254;-60
2023/09/30 06:41:05;;;;;;;12.93;7.03;;;10.50;99.90;;;;;;4975170;28;20312;-60
2023/09/30 06:43:33;;;;;;;11.00;6.00;;;10.50;99.90;;;;;;4975208;28;20642;-61
2023/09/30 06:45:59;;;;;;;11.68;5.85;;;10.50;99.90;;;;;;4975443;28;20192;-60
2023/09/30 06:48:24;;;;;;;11.30;6.13;;;10.70;99.90;;;;;;4973599;28;20601;-60
2023/09/30 06:50:52;;;;;;;9.57;6.18;;;10.80;99.90;;;;;;4975018;28;20203;-60
2023/09/30 06:53:19;;;;;;;8.32;5.82;;;10.90;99.90;;;;;;4975531;28;20531;-60
2023/09/30 06:55:45;;;;;;;12.27;6.40;;;11.00;99.90;;;;;;4974886;28;20191;-61
2023/09/30 06:58:11;;;;;;;14.52;6.07;;;11.10;99.90;;;;;;4974982;28;20252;-61
2023/09/30 07:00:38;;;;;;;13.35;6.25;;;11.20;99.90;;;;;;4973655;28;20201;-61
2023/09/30 07:03:04;;;;;;;10.10;6.32;;;11.30;99.90;;;;;;4974679;28;20173;-62
2023/09/30 07:05:30;;;;;;;8.85;6.50;;;11.50;99.90;;;;;;4975402;28;20227;-61
2023/09/30 07:07:56;;;;;;;10.75;7.35;;;11.60;99.90;;;;;;4957577;28;20181;-61
2023/09/30 07:10:22;;;;;;;14.55;7.18;;;11.70;99.90;;;;;;4973996;28;20205;-63
2023/09/30 07:12:48;;;;;;;14.15;6.95;;;12.00;99.90;;;;;;4974831;28;20177;-63
2023/09/30 07:15:14;;;;;;;11.30;6.13;;;12.00;99.90;;;;;;4974965;28;20574;-63
2023/09/30 07:17:40;;;;;;;11.98;6.55;;;12.20;99.90;;;;;;4974336;28;20292;-63
2023/09/30 07:20:09;;;;;;;12.90;7.22;;;12.20;99.90;;;;;;4975236;28;20658;-63
2023/09/30 07:22:36;;;;;;;13.27;7.30;;;12.20;99.90;;;;;;4974632;28;20169;-63
2023/09/30 07:25:02;;;;;;;11.35;6.80;;;12.30;99.90;;;;;;4956936;28;20201;-63
2023/09/30 07:27:27;;;;;;;12.52;6.63;;;12.50;99.90;;;;;;4973418;28;20272;-63
2023/09/30 07:29:53;;;;;;;14.10;7.20;;;12.60;99.90;;;;;;4974566;28;20224;-63
2023/09/30 07:32:22;;;;;;;16.17;6.90;;;12.80;99.90;;;;;;4974318;28;20668;-63
2023/09/30 07:34:48;;;;;;;12.15;6.47;;;12.90;99.90;;;;;;4974469;28;20231;-63
2023/09/30 07:37:14;;;;;;;17.00;6.70;;;13.10;99.90;;;;;;4974394;28;20201;-63
2023/09/30 07:39:40;;;;;;;14.15;6.53;;;13.40;99.90;;;;;;4974544;28;20189;-63
2023/09/30 07:42:09;;;;;;;15.13;7.20;;;13.70;99.90;;;;;;4974699;28;20669;-63
2023/09/30 07:44:38;;;;;;;20.25;7.75;;;13.90;99.90;;;;;;4974565;28;20693;-63
2023/09/30 07:47:06;;;;;;;14.00;6.50;;;13.90;99.90;;;;;;4974099;28;20185;-63
2023/09/30 07:49:36;;;;;;;16.92;6.55;;;14.30;99.90;;;;;;4974675;28;20621;-63
2023/09/30 07:52:03;;;;;;;14.38;5.57;;;14.50;99.90;;;;;;4975228;28;20157;-63
2023/09/30 07:54:29;;;;;;;11.75;5.63;;;14.80;99.90;;;;;;4974843;28;20264;-63
2023/09/30 07:56:55;;;;;;;15.70;5.75;;;15.00;99.90;;;;;;4973433;28;20316;-63
2023/09/30 07:59:21;;;;;;;11.05;5.50;;;15.20;99.90;;;;;;4974421;28;20193;-63
2023/09/30 08:01:48;;;;;;;14.32;6.40;;;15.40;99.90;;;;;;4974426;28;20173;-63
2023/09/30 08:04:14;;;;;;;17.52;5.80;;;15.70;99.90;;;;;;4973083;28;20181;-63
2023/09/30 08:06:39;;;;;;;16.23;5.88;;;15.50;99.90;;;;;;4974185;28;20200;-63
2023/09/30 08:09:11;;;;;;;14.10;5.80;;;15.10;99.90;;;;;;4976497;28;20269;-63
2023/09/30 08:11:37;;;;;;;13.20;5.28;;;15.10;99.90;;;;;;4977033;28;20585;-63
2023/09/30 08:14:06;;;;;;;14.93;5.63;;;15.10;99.90;;;;;;4976801;28;20212;-63
2023/09/30 08:16:33;;;;;;;17.60;6.50;;;15.40;99.90;;;;;;4977505;28;20188;-63
2023/09/30 08:18:59;;;;;;;14.60;5.72;;;15.50;99.90;;;;;;4978311;28;20269;-63
2023/09/30 08:21:25;;;;;;;16.70;6.05;;;15.30;99.90;;;;;;4976611;28;20664;-63
2023/09/30 08:23:50;;;;;;;12.88;6.30;;;15.30;99.90;;;;;;4977866;28;20178;-63
2023/09/30 08:26:16;;;;;;;12.55;5.95;;;15.60;99.90;;;;;;4977753;28;20658;-63
2023/09/30 08:28:42;;;;;;;15.30;6.10;;;15.60;99.90;;;;;;4977613;28;20189;-63
2023/09/30 08:31:09;;;;;;;15.38;6.22;;;15.50;99.90;;;;;;4977539;28;20212;-63
2023/09/30 08:33:41;;;;;;;13.95;6.13;;;15.40;99.90;;;;;;4976167;28;20196;-63
2023/09/30 08:36:08;;;;;;;13.15;6.50;;;15.50;99.90;;;;;;4977936;28;20164;-63
2023/09/30 08:38:35;;;;;;;14.60;5.80;;;15.40;99.90;;;;;;4977943;28;20197;-63
2023/09/30 08:41:02;;;;;;;14.55;6.20;;;15.60;99.90;;;;;;4977346;28;20197;-63
2023/09/30 08:43:30;;;;;;;20.42;7.00;;;15.70;99.90;;;;;;4978111;28;20197;-61
2023/09/30 08:45:57;;;;;;;13.63;6.10;;;15.60;99.90;;;;;;4977399;28;20173;-61
2023/09/30 08:48:30;;;;;;;12.20;6.07;;;15.60;99.90;;;;;;4976947;28;20188;-61
2023/09/30 08:50:58;;;;;;;15.15;6.15;;;15.60;99.90;;;;;;4977218;28;20201;-61
2023/09/30 08:53:25;;;;;;;14.23;5.85;;;15.70;99.90;;;;;;4977536;28;20260;-61
2023/09/30 08:55:55;;;;;;;14.77;6.30;;;15.90;99.90;;;;;;4959910;28;20197;-61
2023/09/30 08:58:26;;;;;;;13.80;6.10;;;15.80;99.90;;;;;;4977556;28;20326;-61
2023/09/30 09:00:53;;;;;;;16.38;6.03;;;15.90;99.90;;;;;;4976862;28;20197;-61
2023/09/30 09:03:21;;;;;;;18.35;6.43;;;16.00;99.90;;;;;;4959492;28;20648;-61
2023/09/30 09:05:56;;;;;;;16.80;6.03;;;15.90;99.90;;;;;;4977309;28;20270;-61
2023/09/30 09:08:24;;;;;;;14.52;6.00;;;16.10;99.90;;;;;;4959385;28;20177;-61
2023/09/30 09:10:58;;;;;;;15.30;5.88;;;16.10;99.90;;;;;;4976828;28;20287;-61
2023/09/30 09:13:45;;;;;;;14.30;6.32;;;16.30;99.90;;;;;;4959488;28;20180;-61
2023/09/30 09:16:13;;;;;;;14.00;6.18;;;16.30;99.90;;;;;;4976641;28;20244;-61
2023/09/30 09:18:41;;;;;;;13.40;6.10;;;16.20;99.90;;;;;;4976450;28;20692;-61
2023/09/30 09:21:12;;;;;;;12.65;5.40;;;16.10;99.90;;;;;;4976334;28;20284;-61
2023/09/30 09:23:46;;;;;;;13.45;6.28;;;16.10;99.90;;;;;;4976555;28;20206;-61
2023/09/30 09:26:24;;;;;;;14.27;6.07;;;16.20;99.90;;;;;;4959139;28;20193;-61
2023/09/30 09:28:56;;;;;;;13.38;5.72;;;16.30;99.90;;;;;;4976593;28;20157;-61
2023/09/30 09:31:23;;;;;;;12.45;5.60;;;16.50;99.90;;;;;;4976661;28;20158;-61
2023/09/30 09:33:53;;;;;;;12.52;5.45;;;16.50;99.90;;;;;;4976217;28;20180;-61
2023/09/30 09:36:21;;;;;;;10.40;5.57;;;16.40;99.90;;;;;;4976283;28;20170;-61
2023/09/30 09:38:52;;;;;;;17.67;6.35;;;16.60;99.90;;;;;;4959043;28;20204;-61
2023/09/30 09:41:20;;;;;;;16.75;6.60;;;16.70;99.90;;;;;;4976303;28;20194;-61
2023/09/30 09:43:52;;;;;;;12.40;5.53;;;16.80;99.90;;;;;;4976315;28;20177;-61
2023/09/30 09:46:19;;;;;;;11.60;4.90;;;17.00;99.90;;;;;;4976617;28;20533;-61
2023/09/30 09:48:47;;;;;;;12.90;5.53;;;17.10;99.90;;;;;;4975868;28;20177;-61
2023/09/30 09:51:14;;;;;;;11.32;4.88;;;17.20;99.90;;;;;;4976147;28;20217;-61
2023/09/30 09:53:42;;;;;;;15.90;5.18;;;17.30;99.90;;;;;;4976163;28;20259;-61
2023/09/30 09:56:10;;;;;;;14.93;5.68;;;17.30;99.90;;;;;;4976040;28;20197;-61
2023/09/30 09:58:42;;;;;;;17.48;5.78;;;17.30;99.90;;;;;;4975737;28;20197;-61
2023/09/30 10:01:10;;;;;;;12.93;5.63;;;17.30;99.90;;;;;;4976663;28;20224;-61
2023/09/30 10:03:39;;;;;;;14.75;6.03;;;17.40;99.90;;;;;;4974414;28;20177;-61
2023/09/30 10:06:08;;;;;;;14.07;4.93;;;17.40;99.90;;;;;;4975755;28;20577;-61
2023/09/30 10:08:45;;;;;;;13.68;4.43;;;17.40;99.90;;;;;;4974529;28;20189;-61
2023/09/30 10:11:20;;;;;;;13.50;5.03;;;17.40;99.90;;;;;;4993280;28;20561;-61
2023/09/30 10:14:03;;;;;;;11.50;4.10;;;17.40;99.90;;;;;;4995215;28;20175;-61
2023/09/30 10:16:36;;;;;;;10.35;4.47;;;17.50;99.90;;;;;;4991880;28;20272;-61
2023/09/30 10:19:18;;;;;;;8.27;4.03;;;17.60;99.90;;;;;;4975635;28;20193;-62
2023/09/30 10:22:19;;;;;;;10.43;4.32;;;17.60;99.90;;;;;;4975516;28;20165;-61
2023/09/30 10:24:46;;;;;;;10.35;3.88;;;17.50;99.90;;;;;;4976040;28;20184;-61
2023/09/30 10:27:29;;;;;;;11.07;4.28;;;17.50;99.90;;;;;;4975859;28;20174;-61
2023/09/30 10:29:59;;;;;;;6.63;3.97;;;17.60;99.90;;;;;;4958234;28;20796;-61
2023/09/30 10:32:53;;;;;;;8.07;4.32;;;17.70;99.90;;;;;;4975046;28;20552;-61
2023/09/30 10:35:20;;;;;;;11.48;4.47;;;17.80;99.90;;;;;;4976130;28;20176;-61
2023/09/30 10:37:47;;;;;;;13.07;4.60;;;17.80;99.90;;;;;;4975249;28;20204;-62
2023/09/30 10:40:33;;;;;;;8.77;4.28;;;17.80;99.90;;;;;;4975504;28;20197;-62
2023/09/30 10:43:02;;;;;;;11.65;4.32;;;17.80;99.90;;;;;;4957856;28;20189;-62
2023/09/30 10:45:44;;;;;;;10.95;4.47;;;17.90;99.90;;;;;;4975723;28;20204;-62
2023/09/30 10:48:26;;;;;;;9.45;4.40;;;17.90;99.90;;;;;;4974721;28;20658;-62
2023/09/30 10:50:57;;;;;;;5.20;3.45;;;18.10;99.90;;;;;;4985513;28;20205;-62
2023/09/30 10:53:23;;;;;;;8.15;4.03;;;18.10;99.90;;;;;;4975001;28;20188;-61
2023/09/30 10:55:57;;;;;;;7.60;3.50;;;18.30;99.90;;;;;;4975060;28;20717;-62
2023/09/30 10:58:51;;;;;;;10.10;4.45;;;18.50;99.90;;;;;;4974841;28;20204;-62
2023/09/30 11:01:22;;;;;;;10.95;4.30;;;18.50;99.90;;;;;;4974911;28;20185;-62
2023/09/30 11:03:53;;;;;;;11.32;4.00;;;18.60;99.90;;;;;;4974668;28;20177;-61
2023/09/30 11:06:23;;;;;;;10.35;4.43;;;18.70;99.90;;;;;;4975355;28;20157;-62
2023/09/30 11:08:58;;;;;;;11.93;3.95;;;18.70;99.90;;;;;;4974867;28;20184;-62
2023/09/30 11:11:39;;;;;;;10.65;3.95;;;18.80;99.90;;;;;;4974837;28;20176;-62
2023/09/30 11:14:23;;;;;;;9.27;3.75;;;18.80;99.90;;;;;;4973520;28;20264;-62
2023/09/30 11:16:54;;;;;;;12.27;3.80;;;18.70;99.90;;;;;;4974662;28;20185;-62
2023/09/30 11:19:21;;;;;;;11.65;4.28;;;18.60;99.90;;;;;;4974477;28;20193;-62
2023/09/30 11:21:49;;;;;;;10.20;4.15;;;18.80;99.90;;;;;;4974253;28;20212;-62
2023/09/30 11:24:16;;;;;;;8.98;3.90;;;19.00;99.90;;;;;;4957262;28;20201;-61
2023/09/30 11:26:43;;;;;;;6.88;3.85;;;19.20;99.90;;;;;;4974601;28;20236;-62
2023/09/30 11:29:18;;;;;;;7.38;4.05;;;19.20;99.90;;;;;;4974500;28;20180;-62
2023/09/30 11:31:46;;;;;;;10.60;4.15;;;19.30;99.90;;;;;;4974551;28;20157;-61
2023/09/30 11:34:13;;;;;;;11.57;3.63;;;19.30;99.90;;;;;;4974356;28;20196;-62
2023/09/30 11:36:44;;;;;;;8.10;3.90;;;19.40;99.90;;;;;;4974606;28;20633;-62
2023/09/30 11:39:20;;;;;;;8.52;3.38;;;19.40;99.90;;;;;;4974611;28;20665;-62
2023/09/30 11:41:46;;;;;;;9.23;4.38;;;19.40;99.90;;;;;;4974781;28;20165;-62
2023/09/30 11:44:13;;;;;;;8.63;3.42;;;19.40;99.90;;;;;;4976923;28;20177;-62
2023/09/30 11:47:04;;;;;;;9.60;3.97;;;19.50;99.90;;;;;;4978425;28;20651;-62
2023/09/30 11:49:31;;;;;;;9.35;3.88;;;19.60;99.90;;;;;;4978542;28;20193;-64
2023/09/30 11:51:59;;;;;;;9.65;3.85;;;19.70;99.90;;;;;;4978327;28;20169;-64
2023/09/30 11:54:39;;;;;;;14.15;4.30;;;19.70;99.90;;;;;;4978385;28;20650;-64
2023/09/30 11:57:05;;;;;;;8.55;4.07;;;19.80;99.90;;;;;;4978331;28;20200;-64
2023/09/30 11:59:31;;;;;;;8.43;4.25;;;19.60;99.90;;;;;;4977228;28;20581;-64
2023/09/30 12:01:58;;;;;;;11.18;4.50;;;19.70;99.90;;;;;;4978242;28;20516;-64
2023/09/30 12:04:24;;;;;;;9.80;4.15;;;19.60;99.90;;;;;;4977788;28;20669;-64
2023/09/30 12:06:51;;;;;;;12.35;4.63;;;19.50;99.90;;;;;;4978452;28;20630;-63
2023/09/30 12:09:22;;;;;;;9.35;4.57;;;19.60;99.90;;;;;;4978099;28;20181;-64
2023/09/30 12:11:57;;;;;;;11.30;4.20;;;19.80;99.90;;;;;;4978089;28;20173;-64
2023/09/30 12:14:29;;;;;;;11.63;4.20;;;19.90;99.90;;;;;;4977887;28;20173;-64
2023/09/30 12:16:55;;;;;;;8.25;4.75;;;19.60;99.90;;;;;;4977863;28;20267;-64
2023/09/30 12:19:22;;;;;;;7.45;3.95;;;19.50;99.90;;;;;;4976377;28;20545;-64
2023/09/30 12:21:50;;;;;;;5.30;3.60;;;19.70;99.90;;;;;;4977883;28;20659;-64
2023/09/30 12:24:21;;;;;;;7.20;3.45;;;19.90;99.90;;;;;;4977858;28;20220;-66
2023/09/30 12:26:49;;;;;;;7.68;3.38;;;20.20;99.90;;;;;;4978368;28;20157;-64
2023/09/30 12:29:21;;;;;;;11.35;4.18;;;20.40;99.90;;;;;;4977826;28;20169;-64
2023/09/30 12:31:52;;;;;;;7.07;3.53;;;20.30;99.90;;;;;;4960362;28;20709;-64
2023/09/30 12:34:26;;;;;;;7.82;3.85;;;19.80;99.90;;;;;;4977334;28;20260;-64
2023/09/30 12:36:56;;;;;;;6.65;3.88;;;19.50;99.90;;;;;;4977512;28;20209;-64
2023/09/30 12:39:24;;;;;;;7.97;3.83;;;19.60;99.90;;;;;;4960145;28;20201;-63
2023/09/30 12:41:50;;;;;;;9.73;4.65;;;19.80;99.90;;;;;;4960103;28;20181;-64
2023/09/30 12:44:17;;;;;;;9.68;3.95;;;20.10;99.90;;;;;;4977500;28;20204;-64
2023/09/30 12:46:44;;;;;;;12.15;4.57;;;20.20;99.90;;;;;;4977393;28;20184;-65